sensor_id;sensor_type;location;lat;lon;timestamp;P1;durP1;ratioP1;P2;durP2;ratioP2
2213;SDS011;1113;42.018;23.986;2024-03-25T00:01:45;6.20;;;4.80;;
2213;SDS011;1113;42.018;23.986;2024-03-25T00:04:11;8.97;;;5.30;;
2213;SDS011;1113;42.018;23.986;2024-03-25T00:06:37;7.77;;;5.23;;
2213;SDS011;1113;42.018;23.986;2024-03-25T00:09:04;6.67;;;5.50;;
2213;SDS011;1113;42.018;23.986;2024-03-25T00:11:33;8.60;;;5.20;;
2213;SDS011;1113;42.018;23.986;2024-03-25T00:14:04;8.10;;;6.07;;
2213;SDS011;1113;42.018;23.986;2024-03-25T00:16:30;6.73;;;5.40;;
2213;SDS011;1113;42.018;23.986;2024-03-25T00:18:57;5.73;;;5.13;;
2213;SDS011;1113;42.018;23.986;2024-03-25T00:21:22;7.70;;;5.60;;
2213;SDS011;1113;42.018;23.986;2024-03-25T00:23:49;10.53;;;5.20;;
2213;SDS011;1113;42.018;23.986;2024-03-25T00:26:15;6.47;;;5.40;;
2213;SDS011;1113;42.018;23.986;2024-03-25T00:28:42;6.33;;;5.00;;
2213;SDS011;1113;42.018;23.986;2024-03-25T00:31:10;7.40;;;5.13;;
2213;SDS011;1113;42.018;23.986;2024-03-25T00:33:37;7.37;;;5.13;;
2213;SDS011;1113;42.018;23.986;2024-03-25T00:36:03;7.10;;;5.13;;
2213;SDS011;1113;42.018;23.986;2024-03-25T00:38:30;8.50;;;5.23;;
2213;SDS011;1113;42.018;23.986;2024-03-25T00:40:57;5.43;;;4.67;;
2213;SDS011;1113;42.018;23.986;2024-03-25T00:43:24;5.33;;;4.83;;
2213;SDS011;1113;42.018;23.986;2024-03-25T00:45:50;6.13;;;4.10;;
2213;SDS011;1113;42.018;23.986;2024-03-25T00:48:18;7.13;;;4.70;;
2213;SDS011;1113;42.018;23.986;2024-03-25T00:50:44;6.63;;;5.37;;
2213;SDS011;1113;42.018;23.986;2024-03-25T00:53:11;10.30;;;6.50;;
2213;SDS011;1113;42.018;23.986;2024-03-25T00:55:38;7.50;;;5.33;;
2213;SDS011;1113;42.018;23.986;2024-03-25T00:58:05;8.97;;;5.87;;
2213;SDS011;1113;42.018;23.986;2024-03-25T01:00:31;9.00;;;6.20;;
2213;SDS011;1113;42.018;23.986;2024-03-25T01:02:58;7.53;;;5.90;;
2213;SDS011;1113;42.018;23.986;2024-03-25T01:05:26;8.27;;;6.10;;
2213;SDS011;1113;42.018;23.986;2024-03-25T01:07:53;8.07;;;6.30;;
2213;SDS011;1113;42.018;23.986;2024-03-25T01:10:19;7.93;;;6.00;;
2213;SDS011;1113;42.018;23.986;2024-03-25T01:12:46;7.60;;;6.20;;
2213;SDS011;1113;42.018;23.986;2024-03-25T01:15:11;7.43;;;6.30;;
2213;SDS011;1113;42.018;23.986;2024-03-25T01:17:39;8.60;;;6.70;;
2213;SDS011;1113;42.018;23.986;2024-03-25T01:20:05;9.27;;;6.33;;
2213;SDS011;1113;42.018;23.986;2024-03-25T01:22:35;7.73;;;6.60;;
2213;SDS011;1113;42.018;23.986;2024-03-25T01:25:00;8.73;;;6.57;;
2213;SDS011;1113;42.018;23.986;2024-03-25T01:27:27;8.63;;;6.53;;
2213;SDS011;1113;42.018;23.986;2024-03-25T01:29:53;7.57;;;6.10;;
2213;SDS011;1113;42.018;23.986;2024-03-25T01:32:20;10.27;;;6.40;;
2213;SDS011;1113;42.018;23.986;2024-03-25T01:34:45;5.87;;;4.83;;
2213;SDS011;1113;42.018;23.986;2024-03-25T01:37:12;4.00;;;3.00;;
2213;SDS011;1113;42.018;23.986;2024-03-25T01:39:39;3.40;;;2.00;;
2213;SDS011;1113;42.018;23.986;2024-03-25T01:42:06;3.10;;;2.00;;
2213;SDS011;1113;42.018;23.986;2024-03-25T01:44:32;2.47;;;1.70;;
2213;SDS011;1113;42.018;23.986;2024-03-25T01:46:59;2.50;;;1.40;;
2213;SDS011;1113;42.018;23.986;2024-03-25T01:49:25;2.07;;;1.30;;
2213;SDS011;1113;42.018;23.986;2024-03-25T01:51:52;2.27;;;1.40;;
2213;SDS011;1113;42.018;23.986;2024-03-25T01:54:17;2.77;;;1.33;;
2213;SDS011;1113;42.018;23.986;2024-03-25T01:56:46;1.83;;;1.40;;
2213;SDS011;1113;42.018;23.986;2024-03-25T01:59:12;3.10;;;2.10;;
2213;SDS011;1113;42.018;23.986;2024-03-25T02:01:39;2.60;;;2.00;;
2213;SDS011;1113;42.018;23.986;2024-03-25T02:04:05;3.80;;;2.30;;
2213;SDS011;1113;42.018;23.986;2024-03-25T02:06:32;3.97;;;2.17;;
2213;SDS011;1113;42.018;23.986;2024-03-25T02:08:58;3.87;;;2.90;;
2213;SDS011;1113;42.018;23.986;2024-03-25T02:11:25;3.10;;;2.33;;
2213;SDS011;1113;42.018;23.986;2024-03-25T02:13:53;2.90;;;2.10;;
2213;SDS011;1113;42.018;23.986;2024-03-25T02:16:20;3.73;;;2.50;;
2213;SDS011;1113;42.018;23.986;2024-03-25T02:18:45;3.20;;;2.20;;
2213;SDS011;1113;42.018;23.986;2024-03-25T02:21:12;3.63;;;2.37;;
2213;SDS011;1113;42.018;23.986;2024-03-25T02:23:38;3.57;;;2.20;;
2213;SDS011;1113;42.018;23.986;2024-03-25T02:26:07;3.80;;;2.00;;
2213;SDS011;1113;42.018;23.986;2024-03-25T02:28:32;5.40;;;2.70;;
2213;SDS011;1113;42.018;23.986;2024-03-25T02:30:59;4.83;;;3.27;;
2213;SDS011;1113;42.018;23.986;2024-03-25T02:33:24;5.60;;;2.80;;
2213;SDS011;1113;42.018;23.986;2024-03-25T02:35:51;3.70;;;2.67;;
2213;SDS011;1113;42.018;23.986;2024-03-25T02:38:17;2.83;;;1.80;;
2213;SDS011;1113;42.018;23.986;2024-03-25T02:40:44;2.00;;;1.33;;
2213;SDS011;1113;42.018;23.986;2024-03-25T02:43:11;4.27;;;2.13;;
2213;SDS011;1113;42.018;23.986;2024-03-25T02:45:41;2.20;;;1.50;;
2213;SDS011;1113;42.018;23.986;2024-03-25T02:48:07;2.43;;;1.13;;
2213;SDS011;1113;42.018;23.986;2024-03-25T02:50:34;1.70;;;1.07;;
2213;SDS011;1113;42.018;23.986;2024-03-25T02:53:00;2.50;;;1.10;;
2213;SDS011;1113;42.018;23.986;2024-03-25T02:55:26;2.70;;;0.90;;
2213;SDS011;1113;42.018;23.986;2024-03-25T02:57:52;1.87;;;0.83;;
2213;SDS011;1113;42.018;23.986;2024-03-25T03:00:20;4.45;;;1.30;;
2213;SDS011;1113;42.018;23.986;2024-03-25T03:02:46;1.77;;;1.00;;
2213;SDS011;1113;42.018;23.986;2024-03-25T03:05:13;1.90;;;1.00;;
2213;SDS011;1113;42.018;23.986;2024-03-25T03:07:39;2.10;;;1.10;;
2213;SDS011;1113;42.018;23.986;2024-03-25T03:10:07;2.97;;;1.10;;
2213;SDS011;1113;42.018;23.986;2024-03-25T03:12:32;1.50;;;0.70;;
2213;SDS011;1113;42.018;23.986;2024-03-25T03:14:59;1.60;;;0.65;;
2213;SDS011;1113;42.018;23.986;2024-03-25T03:17:27;1.42;;;0.65;;
2213;SDS011;1113;42.018;23.986;2024-03-25T03:19:54;1.80;;;0.93;;
2213;SDS011;1113;42.018;23.986;2024-03-25T03:22:20;1.70;;;0.90;;
2213;SDS011;1113;42.018;23.986;2024-03-25T03:24:46;1.60;;;0.90;;
2213;SDS011;1113;42.018;23.986;2024-03-25T03:27:12;1.90;;;0.90;;
2213;SDS011;1113;42.018;23.986;2024-03-25T03:29:39;1.70;;;1.00;;
2213;SDS011;1113;42.018;23.986;2024-03-25T03:32:07;1.70;;;1.10;;
2213;SDS011;1113;42.018;23.986;2024-03-25T03:34:35;1.90;;;1.33;;
2213;SDS011;1113;42.018;23.986;2024-03-25T03:37:01;1.70;;;1.00;;
2213;SDS011;1113;42.018;23.986;2024-03-25T03:39:28;1.90;;;1.00;;
2213;SDS011;1113;42.018;23.986;2024-03-25T03:41:53;3.00;;;0.90;;
2213;SDS011;1113;42.018;23.986;2024-03-25T03:44:22;1.83;;;0.90;;
2213;SDS011;1113;42.018;23.986;2024-03-25T03:46:48;1.97;;;0.90;;
2213;SDS011;1113;42.018;23.986;2024-03-25T03:49:15;1.60;;;0.80;;
2213;SDS011;1113;42.018;23.986;2024-03-25T03:51:42;1.50;;;0.60;;
2213;SDS011;1113;42.018;23.986;2024-03-25T03:54:08;1.50;;;0.70;;
2213;SDS011;1113;42.018;23.986;2024-03-25T03:56:34;2.00;;;1.00;;
2213;SDS011;1113;42.018;23.986;2024-03-25T03:59:00;1.60;;;0.70;;
2213;SDS011;1113;42.018;23.986;2024-03-25T04:01:26;4.83;;;2.67;;
2213;SDS011;1113;42.018;23.986;2024-03-25T04:03:53;2.17;;;1.10;;
2213;SDS011;1113;42.018;23.986;2024-03-25T04:06:20;3.40;;;1.83;;
2213;SDS011;1113;42.018;23.986;2024-03-25T04:08:48;2.95;;;2.20;;
2213;SDS011;1113;42.018;23.986;2024-03-25T04:11:16;3.50;;;2.45;;
2213;SDS011;1113;42.018;23.986;2024-03-25T04:13:43;4.55;;;1.95;;
2213;SDS011;1113;42.018;23.986;2024-03-25T04:16:09;3.63;;;1.97;;
2213;SDS011;1113;42.018;23.986;2024-03-25T04:18:36;4.80;;;3.20;;
2213;SDS011;1113;42.018;23.986;2024-03-25T04:21:02;5.50;;;3.23;;
2213;SDS011;1113;42.018;23.986;2024-03-25T04:23:29;3.60;;;2.60;;
2213;SDS011;1113;42.018;23.986;2024-03-25T04:26:00;4.30;;;3.00;;
2213;SDS011;1113;42.018;23.986;2024-03-25T04:28:27;3.83;;;2.47;;
2213;SDS011;1113;42.018;23.986;2024-03-25T04:30:53;3.53;;;2.80;;
2213;SDS011;1113;42.018;23.986;2024-03-25T04:33:20;4.40;;;2.83;;
2213;SDS011;1113;42.018;23.986;2024-03-25T04:35:46;3.47;;;2.13;;
2213;SDS011;1113;42.018;23.986;2024-03-25T04:38:15;3.27;;;2.23;;
2213;SDS011;1113;42.018;23.986;2024-03-25T04:40:41;4.77;;;2.83;;
2213;SDS011;1113;42.018;23.986;2024-03-25T04:43:08;7.20;;;4.50;;
2213;SDS011;1113;42.018;23.986;2024-03-25T04:45:34;5.75;;;3.00;;
2213;SDS011;1113;42.018;23.986;2024-03-25T04:47:59;4.57;;;3.33;;
2213;SDS011;1113;42.018;23.986;2024-03-25T04:50:25;4.83;;;3.70;;
2213;SDS011;1113;42.018;23.986;2024-03-25T04:52:51;7.23;;;5.00;;
2213;SDS011;1113;42.018;23.986;2024-03-25T04:55:17;7.30;;;4.80;;
2213;SDS011;1113;42.018;23.986;2024-03-25T04:57:42;4.60;;;3.80;;
2213;SDS011;1113;42.018;23.986;2024-03-25T05:00:10;7.40;;;5.53;;
2213;SDS011;1113;42.018;23.986;2024-03-25T05:02:36;9.10;;;5.95;;
2213;SDS011;1113;42.018;23.986;2024-03-25T05:05:02;7.40;;;5.70;;
2213;SDS011;1113;42.018;23.986;2024-03-25T05:07:28;6.97;;;5.20;;
2213;SDS011;1113;42.018;23.986;2024-03-25T05:09:53;10.63;;;6.57;;
2213;SDS011;1113;42.018;23.986;2024-03-25T05:12:19;7.70;;;6.00;;
2213;SDS011;1113;42.018;23.986;2024-03-25T05:14:45;5.87;;;4.60;;
2213;SDS011;1113;42.018;23.986;2024-03-25T05:17:12;8.87;;;5.50;;
2213;SDS011;1113;42.018;23.986;2024-03-25T05:19:37;9.55;;;7.03;;
2213;SDS011;1113;42.018;23.986;2024-03-25T05:22:03;13.00;;;7.63;;
2213;SDS011;1113;42.018;23.986;2024-03-25T05:24:28;7.77;;;5.67;;
2213;SDS011;1113;42.018;23.986;2024-03-25T05:26:54;7.77;;;5.10;;
2213;SDS011;1113;42.018;23.986;2024-03-25T05:29:20;20.37;;;14.63;;
2213;SDS011;1113;42.018;23.986;2024-03-25T05:31:55;8.55;;;7.10;;
2213;SDS011;1113;42.018;23.986;2024-03-25T05:34:23;9.00;;;5.65;;
2213;SDS011;1113;42.018;23.986;2024-03-25T05:36:49;9.95;;;7.80;;
2213;SDS011;1113;42.018;23.986;2024-03-25T05:39:14;10.63;;;8.40;;
2213;SDS011;1113;42.018;23.986;2024-03-25T05:41:43;12.55;;;9.52;;
2213;SDS011;1113;42.018;23.986;2024-03-25T05:44:09;23.03;;;13.20;;
2213;SDS011;1113;42.018;23.986;2024-03-25T05:46:34;15.00;;;9.60;;
2213;SDS011;1113;42.018;23.986;2024-03-25T05:49:01;12.63;;;7.90;;
2213;SDS011;1113;42.018;23.986;2024-03-25T05:51:28;13.10;;;8.98;;
2213;SDS011;1113;42.018;23.986;2024-03-25T05:53:54;14.65;;;8.15;;
2213;SDS011;1113;42.018;23.986;2024-03-25T05:56:19;21.37;;;11.50;;
2213;SDS011;1113;42.018;23.986;2024-03-25T05:58:45;21.57;;;11.57;;
2213;SDS011;1113;42.018;23.986;2024-03-25T06:01:11;14.30;;;7.40;;
2213;SDS011;1113;42.018;23.986;2024-03-25T06:03:36;9.37;;;5.77;;
2213;SDS011;1113;42.018;23.986;2024-03-25T06:06:02;8.70;;;6.27;;
2213;SDS011;1113;42.018;23.986;2024-03-25T06:08:29;7.37;;;5.30;;
2213;SDS011;1113;42.018;23.986;2024-03-25T06:10:59;5.40;;;3.45;;
2213;SDS011;1113;42.018;23.986;2024-03-25T06:13:25;3.83;;;2.30;;
2213;SDS011;1113;42.018;23.986;2024-03-25T06:15:51;3.70;;;2.77;;
2213;SDS011;1113;42.018;23.986;2024-03-25T06:18:16;5.33;;;3.50;;
2213;SDS011;1113;42.018;23.986;2024-03-25T06:20:42;5.87;;;4.70;;
2213;SDS011;1113;42.018;23.986;2024-03-25T06:23:08;8.13;;;5.67;;
2213;SDS011;1113;42.018;23.986;2024-03-25T06:25:35;12.10;;;7.13;;
2213;SDS011;1113;42.018;23.986;2024-03-25T06:28:00;8.57;;;5.47;;
2213;SDS011;1113;42.018;23.986;2024-03-25T06:30:26;6.83;;;4.40;;
2213;SDS011;1113;42.018;23.986;2024-03-25T06:33:10;7.68;;;4.70;;
2213;SDS011;1113;42.018;23.986;2024-03-25T06:35:54;8.43;;;4.80;;
2213;SDS011;1113;42.018;23.986;2024-03-25T06:38:21;9.97;;;5.80;;
2213;SDS011;1113;42.018;23.986;2024-03-25T06:40:48;6.28;;;4.53;;
2213;SDS011;1113;42.018;23.986;2024-03-25T06:43:14;6.63;;;4.75;;
2213;SDS011;1113;42.018;23.986;2024-03-25T06:45:40;7.60;;;4.60;;
2213;SDS011;1113;42.018;23.986;2024-03-25T06:48:06;14.73;;;8.30;;
2213;SDS011;1113;42.018;23.986;2024-03-25T06:50:32;13.33;;;7.63;;
2213;SDS011;1113;42.018;23.986;2024-03-25T06:52:57;10.10;;;6.17;;
2213;SDS011;1113;42.018;23.986;2024-03-25T06:55:23;8.43;;;4.60;;
2213;SDS011;1113;42.018;23.986;2024-03-25T06:57:50;8.20;;;5.07;;
2213;SDS011;1113;42.018;23.986;2024-03-25T07:00:17;4.80;;;2.70;;
2213;SDS011;1113;42.018;23.986;2024-03-25T07:02:43;16.02;;;7.65;;
2213;SDS011;1113;42.018;23.986;2024-03-25T07:05:09;18.70;;;9.40;;
2213;SDS011;1113;42.018;23.986;2024-03-25T07:07:35;16.67;;;10.03;;
2213;SDS011;1113;42.018;23.986;2024-03-25T07:10:01;18.67;;;10.60;;
2213;SDS011;1113;42.018;23.986;2024-03-25T07:12:27;12.88;;;7.90;;
2213;SDS011;1113;42.018;23.986;2024-03-25T07:14:54;7.70;;;5.43;;
2213;SDS011;1113;42.018;23.986;2024-03-25T07:17:20;7.25;;;4.63;;
2213;SDS011;1113;42.018;23.986;2024-03-25T07:19:46;8.03;;;5.50;;
2213;SDS011;1113;42.018;23.986;2024-03-25T07:22:11;4.13;;;3.10;;
2213;SDS011;1113;42.018;23.986;2024-03-25T07:24:39;4.60;;;3.00;;
2213;SDS011;1113;42.018;23.986;2024-03-25T07:27:04;5.07;;;4.00;;
2213;SDS011;1113;42.018;23.986;2024-03-25T07:29:30;10.17;;;6.87;;
2213;SDS011;1113;42.018;23.986;2024-03-25T07:31:57;12.37;;;7.37;;
2213;SDS011;1113;42.018;23.986;2024-03-25T07:34:23;7.88;;;5.13;;
2213;SDS011;1113;42.018;23.986;2024-03-25T07:36:48;5.53;;;3.20;;
2213;SDS011;1113;42.018;23.986;2024-03-25T07:39:14;8.30;;;5.40;;
2213;SDS011;1113;42.018;23.986;2024-03-25T07:41:40;10.70;;;7.17;;
2213;SDS011;1113;42.018;23.986;2024-03-25T07:44:05;5.20;;;3.73;;
2213;SDS011;1113;42.018;23.986;2024-03-25T07:46:31;5.30;;;2.93;;
2213;SDS011;1113;42.018;23.986;2024-03-25T07:48:58;5.07;;;3.23;;
2213;SDS011;1113;42.018;23.986;2024-03-25T07:51:24;5.30;;;4.47;;
2213;SDS011;1113;42.018;23.986;2024-03-25T07:53:49;12.53;;;8.50;;
2213;SDS011;1113;42.018;23.986;2024-03-25T07:56:15;10.57;;;7.83;;
2213;SDS011;1113;42.018;23.986;2024-03-25T07:58:41;17.70;;;13.00;;
2213;SDS011;1113;42.018;23.986;2024-03-25T08:01:06;15.60;;;11.20;;
2213;SDS011;1113;42.018;23.986;2024-03-25T08:03:32;15.70;;;11.20;;
2213;SDS011;1113;42.018;23.986;2024-03-25T08:05:59;6.63;;;5.00;;
2213;SDS011;1113;42.018;23.986;2024-03-25T08:08:25;10.27;;;6.40;;
2213;SDS011;1113;42.018;23.986;2024-03-25T08:10:50;9.70;;;6.60;;
2213;SDS011;1113;42.018;23.986;2024-03-25T08:13:16;9.93;;;7.07;;
2213;SDS011;1113;42.018;23.986;2024-03-25T08:15:42;9.87;;;7.37;;
2213;SDS011;1113;42.018;23.986;2024-03-25T08:18:07;11.20;;;8.80;;
2213;SDS011;1113;42.018;23.986;2024-03-25T08:20:33;13.93;;;10.03;;
2213;SDS011;1113;42.018;23.986;2024-03-25T08:23:00;14.00;;;10.17;;
2213;SDS011;1113;42.018;23.986;2024-03-25T08:25:26;22.63;;;14.30;;
2213;SDS011;1113;42.018;23.986;2024-03-25T08:27:52;21.50;;;14.05;;
2213;SDS011;1113;42.018;23.986;2024-03-25T08:30:18;19.00;;;12.43;;
2213;SDS011;1113;42.018;23.986;2024-03-25T08:32:44;14.88;;;9.93;;
2213;SDS011;1113;42.018;23.986;2024-03-25T08:35:09;10.73;;;7.50;;
2213;SDS011;1113;42.018;23.986;2024-03-25T08:37:35;7.83;;;6.20;;
2213;SDS011;1113;42.018;23.986;2024-03-25T08:40:03;8.07;;;6.30;;
2213;SDS011;1113;42.018;23.986;2024-03-25T08:42:28;7.70;;;4.82;;
2213;SDS011;1113;42.018;23.986;2024-03-25T08:44:54;7.30;;;4.80;;
2213;SDS011;1113;42.018;23.986;2024-03-25T08:47:20;6.00;;;3.70;;
2213;SDS011;1113;42.018;23.986;2024-03-25T08:49:46;5.20;;;3.63;;
2213;SDS011;1113;42.018;23.986;2024-03-25T08:52:11;3.80;;;3.10;;
2213;SDS011;1113;42.018;23.986;2024-03-25T08:54:37;7.77;;;5.97;;
2213;SDS011;1113;42.018;23.986;2024-03-25T08:57:04;9.30;;;6.53;;
2213;SDS011;1113;42.018;23.986;2024-03-25T08:59:30;6.73;;;4.70;;
2213;SDS011;1113;42.018;23.986;2024-03-25T09:01:55;5.17;;;3.27;;
2213;SDS011;1113;42.018;23.986;2024-03-25T09:04:21;7.80;;;5.37;;
2213;SDS011;1113;42.018;23.986;2024-03-25T09:06:46;5.13;;;3.17;;
2213;SDS011;1113;42.018;23.986;2024-03-25T09:09:12;5.03;;;3.20;;
2213;SDS011;1113;42.018;23.986;2024-03-25T09:11:56;5.10;;;3.40;;
2213;SDS011;1113;42.018;23.986;2024-03-25T09:14:23;4.40;;;3.43;;
2213;SDS011;1113;42.018;23.986;2024-03-25T09:16:49;6.40;;;4.10;;
2213;SDS011;1113;42.018;23.986;2024-03-25T09:19:14;5.70;;;3.90;;
2213;SDS011;1113;42.018;23.986;2024-03-25T09:21:40;4.53;;;3.23;;
2213;SDS011;1113;42.018;23.986;2024-03-25T09:24:06;6.13;;;3.70;;
2213;SDS011;1113;42.018;23.986;2024-03-25T09:26:32;5.77;;;3.40;;
2213;SDS011;1113;42.018;23.986;2024-03-25T09:28:57;4.77;;;3.83;;
2213;SDS011;1113;42.018;23.986;2024-03-25T09:31:25;4.83;;;3.27;;
2213;SDS011;1113;42.018;23.986;2024-03-25T09:33:51;5.70;;;4.23;;
2213;SDS011;1113;42.018;23.986;2024-03-25T09:36:17;4.53;;;3.70;;
2213;SDS011;1113;42.018;23.986;2024-03-25T09:38:43;4.10;;;3.17;;
2213;SDS011;1113;42.018;23.986;2024-03-25T09:41:08;4.10;;;2.87;;
2213;SDS011;1113;42.018;23.986;2024-03-25T09:43:37;5.20;;;3.80;;
2213;SDS011;1113;42.018;23.986;2024-03-25T09:46:08;6.07;;;5.00;;
2213;SDS011;1113;42.018;23.986;2024-03-25T09:48:35;7.10;;;3.43;;
2213;SDS011;1113;42.018;23.986;2024-03-25T09:51:01;4.33;;;2.40;;
2213;SDS011;1113;42.018;23.986;2024-03-25T09:53:30;6.67;;;3.37;;
2213;SDS011;1113;42.018;23.986;2024-03-25T09:55:56;7.80;;;4.60;;
2213;SDS011;1113;42.018;23.986;2024-03-25T09:58:22;3.20;;;1.87;;
2213;SDS011;1113;42.018;23.986;2024-03-25T10:00:49;6.40;;;4.57;;
2213;SDS011;1113;42.018;23.986;2024-03-25T10:03:15;3.40;;;2.50;;
2213;SDS011;1113;42.018;23.986;2024-03-25T10:05:42;4.50;;;3.10;;
2213;SDS011;1113;42.018;23.986;2024-03-25T10:08:08;4.53;;;2.73;;
2213;SDS011;1113;42.018;23.986;2024-03-25T10:10:36;3.67;;;2.30;;
2213;SDS011;1113;42.018;23.986;2024-03-25T10:13:02;4.10;;;2.83;;
2213;SDS011;1113;42.018;23.986;2024-03-25T10:15:28;5.50;;;2.60;;
2213;SDS011;1113;42.018;23.986;2024-03-25T10:17:54;4.13;;;1.60;;
2213;SDS011;1113;42.018;23.986;2024-03-25T10:20:20;3.43;;;2.07;;
2213;SDS011;1113;42.018;23.986;2024-03-25T10:22:47;4.40;;;2.90;;
2213;SDS011;1113;42.018;23.986;2024-03-25T10:25:19;5.80;;;2.77;;
2213;SDS011;1113;42.018;23.986;2024-03-25T10:27:52;2.23;;;1.40;;
2213;SDS011;1113;42.018;23.986;2024-03-25T10:30:19;3.67;;;1.37;;
2213;SDS011;1113;42.018;23.986;2024-03-25T10:32:45;2.40;;;1.23;;
2213;SDS011;1113;42.018;23.986;2024-03-25T10:35:10;2.77;;;1.53;;
2213;SDS011;1113;42.018;23.986;2024-03-25T10:37:36;2.00;;;1.30;;
2213;SDS011;1113;42.018;23.986;2024-03-25T10:40:03;3.87;;;2.90;;
2213;SDS011;1113;42.018;23.986;2024-03-25T10:42:29;4.77;;;3.07;;
2213;SDS011;1113;42.018;23.986;2024-03-25T10:44:56;3.87;;;1.83;;
2213;SDS011;1113;42.018;23.986;2024-03-25T10:47:23;4.30;;;2.20;;
2213;SDS011;1113;42.018;23.986;2024-03-25T10:49:51;4.10;;;3.20;;
2213;SDS011;1113;42.018;23.986;2024-03-25T10:52:21;3.50;;;1.90;;
2213;SDS011;1113;42.018;23.986;2024-03-25T10:54:47;5.07;;;3.10;;
2213;SDS011;1113;42.018;23.986;2024-03-25T10:57:14;5.70;;;3.53;;
2213;SDS011;1113;42.018;23.986;2024-03-25T10:59:41;3.13;;;2.20;;
2213;SDS011;1113;42.018;23.986;2024-03-25T11:02:08;4.00;;;2.80;;
2213;SDS011;1113;42.018;23.986;2024-03-25T11:04:34;5.80;;;3.53;;
2213;SDS011;1113;42.018;23.986;2024-03-25T11:07:06;4.93;;;2.70;;
2213;SDS011;1113;42.018;23.986;2024-03-25T11:09:32;2.53;;;1.80;;
2213;SDS011;1113;42.018;23.986;2024-03-25T11:11:58;2.73;;;2.00;;
2213;SDS011;1113;42.018;23.986;2024-03-25T11:14:26;2.93;;;1.73;;
2213;SDS011;1113;42.018;23.986;2024-03-25T11:16:52;4.63;;;3.20;;
2213;SDS011;1113;42.018;23.986;2024-03-25T11:19:18;6.20;;;3.00;;
2213;SDS011;1113;42.018;23.986;2024-03-25T11:21:45;5.40;;;2.60;;
2213;SDS011;1113;42.018;23.986;2024-03-25T11:24:10;4.27;;;3.50;;
2213;SDS011;1113;42.018;23.986;2024-03-25T11:26:40;4.63;;;2.77;;
2213;SDS011;1113;42.018;23.986;2024-03-25T11:29:06;5.10;;;2.80;;
2213;SDS011;1113;42.018;23.986;2024-03-25T11:31:34;4.77;;;3.60;;
2213;SDS011;1113;42.018;23.986;2024-03-25T11:34:03;6.47;;;3.53;;
2213;SDS011;1113;42.018;23.986;2024-03-25T11:36:29;4.10;;;2.60;;
2213;SDS011;1113;42.018;23.986;2024-03-25T11:38:58;5.27;;;3.60;;
2213;SDS011;1113;42.018;23.986;2024-03-25T11:41:24;5.23;;;2.37;;
2213;SDS011;1113;42.018;23.986;2024-03-25T11:43:50;7.37;;;3.27;;
2213;SDS011;1113;42.018;23.986;2024-03-25T11:46:19;4.77;;;2.67;;
2213;SDS011;1113;42.018;23.986;2024-03-25T11:48:48;6.10;;;3.50;;
2213;SDS011;1113;42.018;23.986;2024-03-25T11:51:16;4.67;;;3.07;;
2213;SDS011;1113;42.018;23.986;2024-03-25T11:53:42;5.90;;;3.87;;
2213;SDS011;1113;42.018;23.986;2024-03-25T11:56:07;3.63;;;3.20;;
2213;SDS011;1113;42.018;23.986;2024-03-25T11:58:33;3.77;;;2.50;;
2213;SDS011;1113;42.018;23.986;2024-03-25T12:00:59;5.77;;;2.90;;
2213;SDS011;1113;42.018;23.986;2024-03-25T12:03:25;5.80;;;3.13;;
2213;SDS011;1113;42.018;23.986;2024-03-25T12:05:53;4.37;;;2.73;;
2213;SDS011;1113;42.018;23.986;2024-03-25T12:08:23;8.23;;;3.57;;
2213;SDS011;1113;42.018;23.986;2024-03-25T12:10:49;3.40;;;2.70;;
2213;SDS011;1113;42.018;23.986;2024-03-25T12:13:33;6.07;;;4.70;;
2213;SDS011;1113;42.018;23.986;2024-03-25T12:15:59;7.63;;;4.00;;
2213;SDS011;1113;42.018;23.986;2024-03-25T12:18:25;5.80;;;3.00;;
2213;SDS011;1113;42.018;23.986;2024-03-25T12:20:51;7.03;;;4.13;;
2213;SDS011;1113;42.018;23.986;2024-03-25T12:23:18;4.10;;;2.20;;
2213;SDS011;1113;42.018;23.986;2024-03-25T12:25:47;4.70;;;2.80;;
2213;SDS011;1113;42.018;23.986;2024-03-25T12:28:13;4.63;;;3.00;;
2213;SDS011;1113;42.018;23.986;2024-03-25T12:30:40;5.90;;;3.73;;
2213;SDS011;1113;42.018;23.986;2024-03-25T12:33:13;4.73;;;3.30;;
2213;SDS011;1113;42.018;23.986;2024-03-25T12:35:39;3.80;;;2.60;;
2213;SDS011;1113;42.018;23.986;2024-03-25T12:38:05;9.17;;;3.50;;
2213;SDS011;1113;42.018;23.986;2024-03-25T12:40:33;5.17;;;3.27;;
2213;SDS011;1113;42.018;23.986;2024-03-25T12:42:58;6.47;;;3.33;;
2213;SDS011;1113;42.018;23.986;2024-03-25T12:45:24;4.30;;;3.20;;
2213;SDS011;1113;42.018;23.986;2024-03-25T12:47:50;6.57;;;3.47;;
2213;SDS011;1113;42.018;23.986;2024-03-25T12:50:16;5.90;;;4.63;;
2213;SDS011;1113;42.018;23.986;2024-03-25T12:52:42;6.57;;;2.70;;
2213;SDS011;1113;42.018;23.986;2024-03-25T12:55:07;3.90;;;3.00;;
2213;SDS011;1113;42.018;23.986;2024-03-25T12:57:35;6.33;;;2.90;;
2213;SDS011;1113;42.018;23.986;2024-03-25T13:00:01;6.23;;;3.70;;
2213;SDS011;1113;42.018;23.986;2024-03-25T13:02:26;5.57;;;3.70;;
2213;SDS011;1113;42.018;23.986;2024-03-25T13:04:52;5.30;;;3.53;;
2213;SDS011;1113;42.018;23.986;2024-03-25T13:07:18;6.50;;;3.30;;
2213;SDS011;1113;42.018;23.986;2024-03-25T13:09:44;6.50;;;4.50;;
2213;SDS011;1113;42.018;23.986;2024-03-25T13:12:09;12.17;;;6.27;;
2213;SDS011;1113;42.018;23.986;2024-03-25T13:14:37;20.70;;;9.60;;
2213;SDS011;1113;42.018;23.986;2024-03-25T13:17:03;8.40;;;6.17;;
2213;SDS011;1113;42.018;23.986;2024-03-25T13:19:28;7.13;;;4.40;;
2213;SDS011;1113;42.018;23.986;2024-03-25T13:21:55;6.60;;;2.80;;
2213;SDS011;1113;42.018;23.986;2024-03-25T13:24:21;5.33;;;3.37;;
2213;SDS011;1113;42.018;23.986;2024-03-25T13:26:46;4.20;;;2.67;;
2213;SDS011;1113;42.018;23.986;2024-03-25T13:29:12;7.73;;;4.30;;
2213;SDS011;1113;42.018;23.986;2024-03-25T13:31:39;6.07;;;3.53;;
2213;SDS011;1113;42.018;23.986;2024-03-25T13:34:05;5.93;;;4.40;;
2213;SDS011;1113;42.018;23.986;2024-03-25T13:36:31;12.93;;;5.47;;
2213;SDS011;1113;42.018;23.986;2024-03-25T13:38:56;6.60;;;4.50;;
2213;SDS011;1113;42.018;23.986;2024-03-25T13:41:22;11.60;;;6.27;;
2213;SDS011;1113;42.018;23.986;2024-03-25T13:43:48;8.43;;;5.10;;
2213;SDS011;1113;42.018;23.986;2024-03-25T13:46:14;7.67;;;5.00;;
2213;SDS011;1113;42.018;23.986;2024-03-25T13:48:41;9.33;;;3.97;;
2213;SDS011;1113;42.018;23.986;2024-03-25T13:51:07;5.60;;;2.90;;
2213;SDS011;1113;42.018;23.986;2024-03-25T13:53:33;14.53;;;8.30;;
2213;SDS011;1113;42.018;23.986;2024-03-25T13:55:59;11.80;;;7.00;;
2213;SDS011;1113;42.018;23.986;2024-03-25T13:58:25;21.77;;;10.90;;
2213;SDS011;1113;42.018;23.986;2024-03-25T14:00:50;13.23;;;7.70;;
2213;SDS011;1113;42.018;23.986;2024-03-25T14:03:16;9.00;;;5.83;;
2213;SDS011;1113;42.018;23.986;2024-03-25T14:05:43;5.80;;;3.13;;
2213;SDS011;1113;42.018;23.986;2024-03-25T14:08:09;8.73;;;4.50;;
2213;SDS011;1113;42.018;23.986;2024-03-25T14:10:35;13.30;;;8.17;;
2213;SDS011;1113;42.018;23.986;2024-03-25T14:13:01;13.17;;;7.40;;
2213;SDS011;1113;42.018;23.986;2024-03-25T14:15:27;12.13;;;5.83;;
2213;SDS011;1113;42.018;23.986;2024-03-25T14:17:53;8.03;;;6.23;;
2213;SDS011;1113;42.018;23.986;2024-03-25T14:20:18;6.60;;;3.10;;
2213;SDS011;1113;42.018;23.986;2024-03-25T14:22:46;6.73;;;3.97;;
2213;SDS011;1113;42.018;23.986;2024-03-25T14:25:11;4.10;;;3.10;;
2213;SDS011;1113;42.018;23.986;2024-03-25T14:27:37;16.23;;;6.43;;
2213;SDS011;1113;42.018;23.986;2024-03-25T14:30:03;6.03;;;4.23;;
2213;SDS011;1113;42.018;23.986;2024-03-25T14:32:29;9.10;;;4.50;;
2213;SDS011;1113;42.018;23.986;2024-03-25T14:34:55;10.83;;;5.73;;
2213;SDS011;1113;42.018;23.986;2024-03-25T14:37:20;5.67;;;3.63;;
2213;SDS011;1113;42.018;23.986;2024-03-25T14:39:48;17.23;;;3.03;;
2213;SDS011;1113;42.018;23.986;2024-03-25T14:42:14;6.60;;;3.90;;
2213;SDS011;1113;42.018;23.986;2024-03-25T14:44:39;6.27;;;4.30;;
2213;SDS011;1113;42.018;23.986;2024-03-25T14:47:05;6.00;;;3.80;;
2213;SDS011;1113;42.018;23.986;2024-03-25T14:49:31;5.80;;;3.23;;
2213;SDS011;1113;42.018;23.986;2024-03-25T14:51:57;5.80;;;3.80;;
2213;SDS011;1113;42.018;23.986;2024-03-25T14:54:22;4.90;;;2.73;;